Terminal Aerodrome Forecast
Issued by NWS Charleston, WV

Current Version | Previous Version | Graphics & Text | Print | Product List | Glossary On
Versions: 1 2 3 4 5 6 7 8 9 10 11 12 13 14 15 16 17 18 19 20 21 22 23
000
FTUS41 KRLX 290902 AAA
TAFEKN
TAF AMD
KEKN 290902Z 2909/3006 00000KT 6SM BR SCT002 OVC029
     FM291300 00000KT P6SM SCT035
     FM291900 VRB03KT P6SM BKN035
     FM300200 00000KT P6SM VCTS BKN035CB
     FM300500 VRB03KT 6SM BR VCTS SCT040CB=

USA.gov is the U.S. government's official web portal to all federal, state and local government web resources and services.